Climatologie pour Saint-Brevin les Pins
 
Jour • Résumé pour février 23, 2018 Système :  Métrique    Anglais   Mixte
« - 1 jour
+ 1 jour »
Jour Semaine Mois Année Personnalisé
  Actuellement : Maximum : Minimum : Moyenne :
Température sous abri : -18.5 °C -17.8 °C -18.6 °C -18.1 °C
Point de rosée : -19.6 °C -17.8 °C -19.6 °C -19.2 °C
Humidité : 87 % Humidity % 80 % 84 %
Vitesse du vent : 7.7 km/h 0 km/h 0 km/h 6.1 km/h
Rafale : 20.8 km/h 0 km/h - -
Direction :NNE - - ENE
Pression : 34384.8 hPa 0 hPa 34371.3 hPa -
Précipitations : 0 mm      
Historical Graphs
 
 
Tableau de données pour février 23, 2018
Heure Tempé Pt rosée Pression Vent Vitesse Rafale Humidité Taux pluie (/hr) Soleil
-17.8 °C -17.8 °C 0 hPa Calm     Humidity % 0 mm SolarRadiationWatts/m^2 W/m2 Conditions
00:00 -17.1 °C -18.8 °C 34428.8 hPa ENE 2.6 km/h 23.3 km/h 80 % 0 mm 0 W/m2
00:05 -17.2 °C -18.9 °C 34428.8 hPa ESE 7.7 km/h 23.3 km/h 80 % 0 mm 0 W/m2
00:10 -17.2 °C -18.9 °C 34418.7 hPa ENE 7.7 km/h 23.3 km/h 80 % 0 mm 0 W/m2
00:15 -17.3 °C -19 °C 34418.7 hPa East 12.9 km/h 23.3 km/h 80 % 0 mm 0 W/m2
00:20 -17.4 °C -19 °C 34418.7 hPa East 10.3 km/h 20.8 km/h 81 % 0 mm 0 W/m2
00:25 -17.4 °C -19 °C 34418.7 hPa East 7.7 km/h 20.8 km/h 82 % 0 mm 0 W/m2
00:30 -17.6 °C -19.1 °C 34418.7 hPa East 15.6 km/h 18.2 km/h 82 % 0 mm 0 W/m2
00:35 -17.6 °C -19 °C 34418.7 hPa SE 5.1 km/h 18.2 km/h 83 % 0 mm 0 W/m2
00:40 -17.6 °C -19 °C 34418.7 hPa ESE 5.1 km/h 18.2 km/h 83 % 0 mm 0 W/m2
00:45 -17.6 °C -19.1 °C 34418.7 hPa ENE 12.9 km/h 15.6 km/h 83 % 0 mm 0 W/m2
00:50 -17.6 °C -19.1 °C 34418.7 hPa East 5.1 km/h 18.2 km/h 83 % 0 mm 0 W/m2
00:55 -17.6 °C -19.1 °C 34418.7 hPa Calm   18.2 km/h 83 % 0 mm 0 W/m2
01:00 -17.7 °C -19.1 °C 34418.7 hPa ENE 2.6 km/h 18.2 km/h 83 % 0 mm 0 W/m2
01:05 -17.8 °C -19.2 °C 34418.7 hPa Calm   10.3 km/h 83 % 0 mm 0 W/m2
01:10 -17.9 °C -19.2 °C 34405.1 hPa Calm   7.7 km/h 84 % 0 mm 0 W/m2
01:15 -17.9 °C -19.2 °C 34405.1 hPa Calm   7.7 km/h 84 % 0 mm 0 W/m2
01:20 -17.9 °C -19.3 °C 34405.1 hPa Calm   10.3 km/h 84 % 0 mm 0 W/m2
01:25 -18.1 °C -19.4 °C 34405.1 hPa Calm   10.3 km/h 84 % 0 mm 0 W/m2
01:30 -18.2 °C -19.4 °C 34405.1 hPa Calm   10.3 km/h 85 % 0 mm 0 W/m2
01:35 -18.2 °C -19.3 °C 34405.1 hPa Calm   10.3 km/h 86 % 0 mm 0 W/m2
01:40 -18.2 °C -19.4 °C 34405.1 hPa Calm   7.7 km/h 86 % 0 mm 0 W/m2
01:45 -18.2 °C -19.3 °C 34405.1 hPa NNE 7.7 km/h 10.3 km/h 86 % 0 mm 0 W/m2
01:50 -18.2 °C -19.2 °C 34405.1 hPa NE 2.6 km/h 12.9 km/h 87 % 0 mm 0 W/m2
01:55 -18.1 °C -19.2 °C 34405.1 hPa NE 5.1 km/h 18.2 km/h 87 % 0 mm 0 W/m2
02:00 -18.1 °C -19.2 °C 34405.1 hPa NE 7.7 km/h 18.2 km/h 86 % 0 mm 0 W/m2
02:05 -17.9 °C -19.1 °C 34405.1 hPa ENE 7.7 km/h 23.3 km/h 86 % 0 mm 0 W/m2
02:10 -17.9 °C -19.1 °C 34405.1 hPa NE 10.3 km/h 23.3 km/h 85 % 0 mm 0 W/m2
02:15 -17.8 °C -19.1 °C 34405.1 hPa NE 7.7 km/h 25.9 km/h 85 % 0 mm 0 W/m2
02:20 -17.8 °C -19.1 °C 34405.1 hPa NE 5.1 km/h 31.1 km/h 85 % 0 mm 0 W/m2
02:25 -17.9 °C -19.1 °C 34405.1 hPa ENE 7.7 km/h 31.1 km/h 85 % 0 mm 0 W/m2
02:30 -17.8 °C -19.1 °C 34405.1 hPa NE 15.6 km/h 23.3 km/h 84 % 0 mm 0 W/m2
02:35 -17.8 °C -19.1 °C 34395 hPa East 7.7 km/h 23.3 km/h 84 % 0 mm 0 W/m2
02:40 -17.8 °C -19.2 °C 34405.1 hPa ENE 10.3 km/h 20.8 km/h 84 % 0 mm 0 W/m2
02:45 -18 °C -19.3 °C 34405.1 hPa NNE 5.1 km/h 20.8 km/h 84 % 0 mm 0 W/m2
02:50 -18.1 °C -19.3 °C 34395 hPa NE 5.1 km/h 18.2 km/h 85 % 0 mm 0 W/m2
02:55 -18.1 °C -19.3 °C 34395 hPa NE 10.3 km/h 18.2 km/h 86 % 0 mm 0 W/m2
03:00 -18.2 °C -19.3 °C 34395 hPa NE 15.6 km/h 18.2 km/h 86 % 0 mm 0 W/m2
03:05 -18.2 °C -19.3 °C 34395 hPa NE 7.7 km/h 18.2 km/h 86 % 0 mm 0 W/m2
03:10 -18.2 °C -19.3 °C 34395 hPa Calm   18.2 km/h 87 % 0 mm 0 W/m2
03:15 -18.3 °C -19.3 °C 34395 hPa NE 2.6 km/h 18.2 km/h 87 % 0 mm 0 W/m2
03:20 -18.3 °C -19.3 °C 34395 hPa ENE 12.9 km/h 20.8 km/h 87 % 0 mm 0 W/m2
03:25 -18.2 °C -19.3 °C 34395 hPa NE 5.1 km/h 20.8 km/h 87 % 0 mm 0 W/m2
03:30 -18.3 °C -19.4 °C 34384.8 hPa NE 5.1 km/h 20.8 km/h 87 % 0 mm 0 W/m2
03:35 -18.4 °C -19.3 °C 34384.8 hPa NNE 5.1 km/h 23.3 km/h 88 % 0 mm 0 W/m2
03:40 -18.4 °C -19.3 °C 34384.8 hPa NE 2.6 km/h 23.3 km/h 88 % 0 mm 0 W/m2
03:45 -18.4 °C -19.3 °C 34384.8 hPa Calm   20.8 km/h 88 % 0 mm 0 W/m2
03:50 -18.4 °C -19.3 °C 34384.8 hPa NNE 12.9 km/h 20.8 km/h 88 % 0 mm 0 W/m2
03:55 -18.4 °C -19.3 °C 34384.8 hPa NNE 2.6 km/h 18.2 km/h 88 % 0 mm 0 W/m2
04:00 -18.4 °C -19.3 °C 34384.8 hPa NE 10.3 km/h 18.2 km/h 88 % 0 mm 0 W/m2
04:05 -18.4 °C -19.4 °C 34384.8 hPa ENE 5.1 km/h 18.2 km/h 88 % 0 mm 0 W/m2
04:10 -18.4 °C -19.3 °C 34384.8 hPa ENE 7.7 km/h 18.2 km/h 88 % 0 mm 0 W/m2
04:15 -18.4 °C -19.3 °C 34384.8 hPa ENE 2.6 km/h 23.3 km/h 88 % 0 mm 0 W/m2
04:20 -18.4 °C -19.4 °C 34384.8 hPa ENE 5.1 km/h 23.3 km/h 87 % 0 mm 0 W/m2
04:25 -18.4 °C -19.4 °C 34384.8 hPa NNE 10.3 km/h 18.2 km/h 87 % 0 mm 0 W/m2
04:30 -18.4 °C -19.4 °C 34384.8 hPa East 12.9 km/h 20.8 km/h 87 % 0 mm 0 W/m2
04:35 -18.4 °C -19.5 °C 34371.3 hPa ENE 10.3 km/h 20.8 km/h 87 % 0 mm 0 W/m2
04:40 -18.5 °C -19.6 °C 34371.3 hPa Calm   20.8 km/h 87 % 0 mm 0 W/m2
04:45 -18.5 °C -19.6 °C 34371.3 hPa NE 10.3 km/h 18.2 km/h 87 % 0 mm 0 W/m2
04:50 -18.5 °C -19.6 °C 34384.8 hPa ENE 7.7 km/h 18.2 km/h 87 % 0 mm 0 W/m2
04:55 -18.5 °C -19.6 °C 34384.8 hPa NE 5.1 km/h 15.6 km/h 87 % 0 mm 0 W/m2
05:00 -18.6 °C -19.6 °C 34384.8 hPa ENE 7.7 km/h 18.2 km/h 87 % 0 mm 0 W/m2
05:05 -18.5 °C -19.6 °C 34384.8 hPa NNE 7.7 km/h 20.8 km/h 87 % 0 mm 0 W/m2
Avec l'autorisation de Weather Underground - 1 mb